sensor_id;sensor_type;location;lat;lon;timestamp;P1;durP1;ratioP1;P2;durP2;ratioP2
55465;SDS011;41329;41.594;23.810;2024-03-25T00:00:24;5.63;;;5.13;;
55465;SDS011;41329;41.594;23.810;2024-03-25T00:02:50;5.20;;;4.80;;
55465;SDS011;41329;41.594;23.810;2024-03-25T00:05:16;5.67;;;5.30;;
55465;SDS011;41329;41.594;23.810;2024-03-25T00:07:47;4.80;;;4.50;;
55465;SDS011;41329;41.594;23.810;2024-03-25T00:10:12;7.90;;;7.20;;
55465;SDS011;41329;41.594;23.810;2024-03-25T00:12:38;8.00;;;7.50;;
55465;SDS011;41329;41.594;23.810;2024-03-25T00:15:03;8.20;;;7.70;;
55465;SDS011;41329;41.594;23.810;2024-03-25T00:17:29;9.23;;;8.63;;
55465;SDS011;41329;41.594;23.810;2024-03-25T00:19:55;8.83;;;8.33;;
55465;SDS011;41329;41.594;23.810;2024-03-25T00:22:21;8.50;;;7.80;;
55465;SDS011;41329;41.594;23.810;2024-03-25T00:24:50;9.83;;;8.33;;
55465;SDS011;41329;41.594;23.810;2024-03-25T00:27:16;8.67;;;8.07;;
55465;SDS011;41329;41.594;23.810;2024-03-25T00:29:42;9.53;;;8.83;;
55465;SDS011;41329;41.594;23.810;2024-03-25T00:32:08;10.20;;;9.43;;
55465;SDS011;41329;41.594;23.810;2024-03-25T00:34:34;10.33;;;9.63;;
55465;SDS011;41329;41.594;23.810;2024-03-25T00:36:59;9.97;;;9.13;;
55465;SDS011;41329;41.594;23.810;2024-03-25T00:39:25;10.53;;;9.63;;
55465;SDS011;41329;41.594;23.810;2024-03-25T00:41:51;10.10;;;9.20;;
55465;SDS011;41329;41.594;23.810;2024-03-25T00:44:17;10.27;;;9.47;;
55465;SDS011;41329;41.594;23.810;2024-03-25T00:46:42;9.47;;;8.53;;
55465;SDS011;41329;41.594;23.810;2024-03-25T00:49:08;8.97;;;8.37;;
55465;SDS011;41329;41.594;23.810;2024-03-25T00:51:34;8.60;;;7.97;;
55465;SDS011;41329;41.594;23.810;2024-03-25T00:54:00;8.77;;;8.17;;
55465;SDS011;41329;41.594;23.810;2024-03-25T00:56:26;8.63;;;7.83;;
55465;SDS011;41329;41.594;23.810;2024-03-25T00:58:51;9.00;;;8.40;;
55465;SDS011;41329;41.594;23.810;2024-03-25T01:01:16;8.23;;;7.63;;
55465;SDS011;41329;41.594;23.810;2024-03-25T01:03:42;7.90;;;7.40;;
55465;SDS011;41329;41.594;23.810;2024-03-25T01:06:07;9.40;;;8.80;;
55465;SDS011;41329;41.594;23.810;2024-03-25T01:08:33;11.23;;;10.33;;
55465;SDS011;41329;41.594;23.810;2024-03-25T01:10:59;11.97;;;10.93;;
55465;SDS011;41329;41.594;23.810;2024-03-25T01:13:25;11.33;;;10.60;;
55465;SDS011;41329;41.594;23.810;2024-03-25T01:15:51;9.93;;;9.33;;
55465;SDS011;41329;41.594;23.810;2024-03-25T01:18:17;11.83;;;10.73;;
55465;SDS011;41329;41.594;23.810;2024-03-25T01:20:42;11.03;;;10.23;;
55465;SDS011;41329;41.594;23.810;2024-03-25T01:23:09;11.67;;;10.87;;
55465;SDS011;41329;41.594;23.810;2024-03-25T01:25:35;11.30;;;9.20;;
55465;SDS011;41329;41.594;23.810;2024-03-25T01:28:00;10.63;;;9.83;;
55465;SDS011;41329;41.594;23.810;2024-03-25T01:30:26;9.23;;;8.63;;
55465;SDS011;41329;41.594;23.810;2024-03-25T01:32:53;10.03;;;9.23;;
55465;SDS011;41329;41.594;23.810;2024-03-25T01:35:20;7.77;;;7.27;;
55465;SDS011;41329;41.594;23.810;2024-03-25T01:37:46;6.47;;;5.97;;
55465;SDS011;41329;41.594;23.810;2024-03-25T01:40:12;6.23;;;5.87;;
55465;SDS011;41329;41.594;23.810;2024-03-25T01:42:39;6.27;;;5.87;;
55465;SDS011;41329;41.594;23.810;2024-03-25T01:45:06;11.30;;;10.13;;
55465;SDS011;41329;41.594;23.810;2024-03-25T01:47:32;10.60;;;9.60;;
55465;SDS011;41329;41.594;23.810;2024-03-25T01:50:00;10.70;;;9.90;;
55465;SDS011;41329;41.594;23.810;2024-03-25T01:52:26;11.40;;;10.37;;
55465;SDS011;41329;41.594;23.810;2024-03-25T01:54:52;11.03;;;10.03;;
55465;SDS011;41329;41.594;23.810;2024-03-25T01:57:18;13.87;;;11.03;;
55465;SDS011;41329;41.594;23.810;2024-03-25T01:59:45;10.30;;;9.40;;
55465;SDS011;41329;41.594;23.810;2024-03-25T02:02:11;10.50;;;9.30;;
55465;SDS011;41329;41.594;23.810;2024-03-25T02:04:38;10.03;;;9.40;;
55465;SDS011;41329;41.594;23.810;2024-03-25T02:07:05;8.80;;;8.20;;
55465;SDS011;41329;41.594;23.810;2024-03-25T02:09:33;8.63;;;8.03;;
55465;SDS011;41329;41.594;23.810;2024-03-25T02:12:00;7.93;;;7.40;;
55465;SDS011;41329;41.594;23.810;2024-03-25T02:14:26;8.77;;;8.10;;
55465;SDS011;41329;41.594;23.810;2024-03-25T02:16:52;6.83;;;6.37;;
55465;SDS011;41329;41.594;23.810;2024-03-25T02:19:17;5.20;;;4.90;;
55465;SDS011;41329;41.594;23.810;2024-03-25T02:21:43;3.37;;;3.13;;
55465;SDS011;41329;41.594;23.810;2024-03-25T02:24:09;2.43;;;1.87;;
55465;SDS011;41329;41.594;23.810;2024-03-25T02:26:35;1.40;;;1.30;;
55465;SDS011;41329;41.594;23.810;2024-03-25T02:29:01;1.47;;;1.37;;
55465;SDS011;41329;41.594;23.810;2024-03-25T02:31:27;0.93;;;0.90;;
55465;SDS011;41329;41.594;23.810;2024-03-25T02:33:52;1.20;;;1.10;;
55465;SDS011;41329;41.594;23.810;2024-03-25T02:36:18;0.50;;;0.50;;
55465;SDS011;41329;41.594;23.810;2024-03-25T02:38:43;0.63;;;0.60;;
55465;SDS011;41329;41.594;23.810;2024-03-25T02:41:09;1.57;;;1.47;;
55465;SDS011;41329;41.594;23.810;2024-03-25T02:43:34;4.33;;;2.30;;
55465;SDS011;41329;41.594;23.810;2024-03-25T02:46:00;3.00;;;2.30;;
55465;SDS011;41329;41.594;23.810;2024-03-25T02:48:25;2.60;;;2.40;;
55465;SDS011;41329;41.594;23.810;2024-03-25T02:50:51;1.00;;;0.87;;
55465;SDS011;41329;41.594;23.810;2024-03-25T02:53:16;1.00;;;0.90;;
55465;SDS011;41329;41.594;23.810;2024-03-25T02:55:42;1.67;;;1.53;;
55465;SDS011;41329;41.594;23.810;2024-03-25T02:58:07;0.20;;;0.20;;
55465;SDS011;41329;41.594;23.810;2024-03-25T03:00:32;0.93;;;0.80;;
55465;SDS011;41329;41.594;23.810;2024-03-25T03:02:58;0.20;;;0.10;;
55465;SDS011;41329;41.594;23.810;2024-03-25T03:05:23;0.10;;;0.00;;
55465;SDS011;41329;41.594;23.810;2024-03-25T03:07:48;0.00;;;0.00;;
55465;SDS011;41329;41.594;23.810;2024-03-25T03:10:14;0.20;;;0.17;;
55465;SDS011;41329;41.594;23.810;2024-03-25T03:12:41;0.20;;;0.20;;
55465;SDS011;41329;41.594;23.810;2024-03-25T03:15:06;0.30;;;0.30;;
55465;SDS011;41329;41.594;23.810;2024-03-25T03:17:32;0.10;;;0.10;;
55465;SDS011;41329;41.594;23.810;2024-03-25T03:19:57;0.50;;;0.50;;
55465;SDS011;41329;41.594;23.810;2024-03-25T03:22:23;0.30;;;0.30;;
55465;SDS011;41329;41.594;23.810;2024-03-25T03:24:48;0.47;;;0.40;;
55465;SDS011;41329;41.594;23.810;2024-03-25T03:27:13;0.70;;;0.40;;
55465;SDS011;41329;41.594;23.810;2024-03-25T03:29:39;0.20;;;0.10;;
55465;SDS011;41329;41.594;23.810;2024-03-25T03:32:04;0.20;;;0.20;;
55465;SDS011;41329;41.594;23.810;2024-03-25T03:34:30;0.30;;;0.17;;
55465;SDS011;41329;41.594;23.810;2024-03-25T03:36:55;0.43;;;0.30;;
55465;SDS011;41329;41.594;23.810;2024-03-25T03:39:20;0.50;;;0.37;;
55465;SDS011;41329;41.594;23.810;2024-03-25T03:41:46;0.70;;;0.30;;
55465;SDS011;41329;41.594;23.810;2024-03-25T03:44:11;0.30;;;0.30;;
55465;SDS011;41329;41.594;23.810;2024-03-25T03:46:39;0.10;;;0.10;;
55465;SDS011;41329;41.594;23.810;2024-03-25T03:49:05;0.33;;;0.20;;
55465;SDS011;41329;41.594;23.810;2024-03-25T03:51:30;0.50;;;0.23;;
55465;SDS011;41329;41.594;23.810;2024-03-25T03:53:56;0.40;;;0.30;;
55465;SDS011;41329;41.594;23.810;2024-03-25T03:56:22;0.20;;;0.20;;
55465;SDS011;41329;41.594;23.810;2024-03-25T03:58:47;0.30;;;0.30;;
55465;SDS011;41329;41.594;23.810;2024-03-25T04:01:16;0.27;;;0.20;;
55465;SDS011;41329;41.594;23.810;2024-03-25T04:03:42;0.70;;;0.40;;
55465;SDS011;41329;41.594;23.810;2024-03-25T04:06:11;0.80;;;0.70;;
55465;SDS011;41329;41.594;23.810;2024-03-25T04:08:40;0.87;;;0.87;;
55465;SDS011;41329;41.594;23.810;2024-03-25T04:11:06;1.80;;;1.20;;
55465;SDS011;41329;41.594;23.810;2024-03-25T04:13:32;3.77;;;1.83;;
55465;SDS011;41329;41.594;23.810;2024-03-25T04:16:02;1.60;;;1.50;;
55465;SDS011;41329;41.594;23.810;2024-03-25T04:18:29;1.07;;;0.97;;
55465;SDS011;41329;41.594;23.810;2024-03-25T04:20:56;1.30;;;1.20;;
55465;SDS011;41329;41.594;23.810;2024-03-25T04:23:21;1.67;;;1.57;;
55465;SDS011;41329;41.594;23.810;2024-03-25T04:25:47;2.70;;;2.50;;
55465;SDS011;41329;41.594;23.810;2024-03-25T04:28:13;1.53;;;1.43;;
55465;SDS011;41329;41.594;23.810;2024-03-25T04:30:38;1.40;;;1.30;;
55465;SDS011;41329;41.594;23.810;2024-03-25T04:33:04;1.13;;;1.10;;
55465;SDS011;41329;41.594;23.810;2024-03-25T04:35:29;1.23;;;0.73;;
55465;SDS011;41329;41.594;23.810;2024-03-25T04:37:55;1.90;;;1.80;;
55465;SDS011;41329;41.594;23.810;2024-03-25T04:40:20;3.20;;;3.00;;
55465;SDS011;41329;41.594;23.810;2024-03-25T04:42:46;3.17;;;2.97;;
55465;SDS011;41329;41.594;23.810;2024-03-25T04:45:11;4.23;;;3.93;;
55465;SDS011;41329;41.594;23.810;2024-03-25T04:47:37;1.90;;;1.70;;
55465;SDS011;41329;41.594;23.810;2024-03-25T04:50:02;1.27;;;1.00;;
55465;SDS011;41329;41.594;23.810;2024-03-25T04:52:28;1.90;;;0.73;;
55465;SDS011;41329;41.594;23.810;2024-03-25T04:54:54;2.90;;;2.63;;
55465;SDS011;41329;41.594;23.810;2024-03-25T04:57:19;8.80;;;8.00;;
55465;SDS011;41329;41.594;23.810;2024-03-25T04:59:45;8.40;;;7.70;;
55465;SDS011;41329;41.594;23.810;2024-03-25T05:02:10;15.13;;;13.83;;
55465;SDS011;41329;41.594;23.810;2024-03-25T05:04:35;19.83;;;17.90;;
55465;SDS011;41329;41.594;23.810;2024-03-25T05:07:01;16.00;;;14.67;;
55465;SDS011;41329;41.594;23.810;2024-03-25T05:09:26;13.00;;;12.07;;
55465;SDS011;41329;41.594;23.810;2024-03-25T05:11:52;16.17;;;15.00;;
55465;SDS011;41329;41.594;23.810;2024-03-25T05:14:17;10.60;;;9.90;;
55465;SDS011;41329;41.594;23.810;2024-03-25T05:16:42;8.80;;;8.20;;
55465;SDS011;41329;41.594;23.810;2024-03-25T05:19:08;6.83;;;6.23;;
55465;SDS011;41329;41.594;23.810;2024-03-25T05:21:33;3.30;;;3.00;;
55465;SDS011;41329;41.594;23.810;2024-03-25T05:23:58;2.57;;;2.37;;
55465;SDS011;41329;41.594;23.810;2024-03-25T05:26:24;2.20;;;2.00;;
55465;SDS011;41329;41.594;23.810;2024-03-25T05:28:53;2.37;;;2.17;;
55465;SDS011;41329;41.594;23.810;2024-03-25T05:31:19;2.80;;;2.60;;
55465;SDS011;41329;41.594;23.810;2024-03-25T05:33:44;12.27;;;11.37;;
55465;SDS011;41329;41.594;23.810;2024-03-25T05:36:10;7.90;;;7.40;;
55465;SDS011;41329;41.594;23.810;2024-03-25T05:38:35;3.87;;;3.60;;
55465;SDS011;41329;41.594;23.810;2024-03-25T05:41:01;2.40;;;2.17;;
55465;SDS011;41329;41.594;23.810;2024-03-25T05:43:26;7.03;;;6.43;;
55465;SDS011;41329;41.594;23.810;2024-03-25T05:45:52;4.33;;;4.03;;
55465;SDS011;41329;41.594;23.810;2024-03-25T05:48:18;3.37;;;3.17;;
55465;SDS011;41329;41.594;23.810;2024-03-25T05:51:03;2.87;;;2.67;;
55465;SDS011;41329;41.594;23.810;2024-03-25T05:53:30;1.47;;;1.37;;
55465;SDS011;41329;41.594;23.810;2024-03-25T05:55:56;0.70;;;0.70;;
55465;SDS011;41329;41.594;23.810;2024-03-25T05:58:24;0.30;;;0.30;;
55465;SDS011;41329;41.594;23.810;2024-03-25T06:00:49;0.50;;;0.50;;
55465;SDS011;41329;41.594;23.810;2024-03-25T06:03:15;0.50;;;0.47;;
55465;SDS011;41329;41.594;23.810;2024-03-25T06:05:42;0.40;;;0.40;;
55465;SDS011;41329;41.594;23.810;2024-03-25T06:08:08;0.50;;;0.50;;
55465;SDS011;41329;41.594;23.810;2024-03-25T06:10:43;1.40;;;1.30;;
55465;SDS011;41329;41.594;23.810;2024-03-25T06:13:09;0.90;;;0.80;;
55465;SDS011;41329;41.594;23.810;2024-03-25T06:15:37;0.80;;;0.70;;
55465;SDS011;41329;41.594;23.810;2024-03-25T06:18:03;1.13;;;0.80;;
55465;SDS011;41329;41.594;23.810;2024-03-25T06:20:28;2.47;;;2.27;;
55465;SDS011;41329;41.594;23.810;2024-03-25T06:22:54;1.70;;;1.33;;
55465;SDS011;41329;41.594;23.810;2024-03-25T06:25:19;0.80;;;0.80;;
55465;SDS011;41329;41.594;23.810;2024-03-25T06:27:44;2.00;;;1.80;;
55465;SDS011;41329;41.594;23.810;2024-03-25T06:30:10;2.13;;;1.63;;
55465;SDS011;41329;41.594;23.810;2024-03-25T06:32:55;1.70;;;1.57;;
55465;SDS011;41329;41.594;23.810;2024-03-25T06:35:38;1.00;;;0.90;;
55465;SDS011;41329;41.594;23.810;2024-03-25T06:38:04;0.83;;;0.83;;
55465;SDS011;41329;41.594;23.810;2024-03-25T06:40:29;0.70;;;0.70;;
55465;SDS011;41329;41.594;23.810;2024-03-25T06:42:55;0.53;;;0.50;;
55465;SDS011;41329;41.594;23.810;2024-03-25T06:45:21;1.10;;;0.60;;
55465;SDS011;41329;41.594;23.810;2024-03-25T06:47:46;0.80;;;0.80;;
55465;SDS011;41329;41.594;23.810;2024-03-25T06:50:12;0.30;;;0.30;;
55465;SDS011;41329;41.594;23.810;2024-03-25T06:52:37;1.37;;;0.80;;
55465;SDS011;41329;41.594;23.810;2024-03-25T06:55:03;2.40;;;1.03;;
55465;SDS011;41329;41.594;23.810;2024-03-25T06:57:28;1.63;;;1.53;;
55465;SDS011;41329;41.594;23.810;2024-03-25T06:59:54;1.07;;;0.97;;
55465;SDS011;41329;41.594;23.810;2024-03-25T07:02:19;0.90;;;0.40;;
55465;SDS011;41329;41.594;23.810;2024-03-25T07:04:44;0.20;;;0.20;;
55465;SDS011;41329;41.594;23.810;2024-03-25T07:07:10;0.83;;;0.47;;
55465;SDS011;41329;41.594;23.810;2024-03-25T07:09:35;0.97;;;0.90;;
55465;SDS011;41329;41.594;23.810;2024-03-25T07:12:01;0.87;;;0.50;;
55465;SDS011;41329;41.594;23.810;2024-03-25T07:14:26;0.20;;;0.20;;
55465;SDS011;41329;41.594;23.810;2024-03-25T07:16:52;0.67;;;0.50;;
55465;SDS011;41329;41.594;23.810;2024-03-25T07:19:17;1.20;;;1.00;;
55465;SDS011;41329;41.594;23.810;2024-03-25T07:21:42;1.30;;;1.07;;
55465;SDS011;41329;41.594;23.810;2024-03-25T07:24:08;1.90;;;1.40;;
55465;SDS011;41329;41.594;23.810;2024-03-25T07:26:33;2.13;;;1.27;;
55465;SDS011;41329;41.594;23.810;2024-03-25T07:28:58;1.00;;;0.90;;
55465;SDS011;41329;41.594;23.810;2024-03-25T07:31:24;1.53;;;1.40;;
55465;SDS011;41329;41.594;23.810;2024-03-25T07:33:50;2.47;;;0.93;;
55465;SDS011;41329;41.594;23.810;2024-03-25T07:36:16;0.47;;;0.47;;
55465;SDS011;41329;41.594;23.810;2024-03-25T07:38:41;0.73;;;0.60;;
55465;SDS011;41329;41.594;23.810;2024-03-25T07:41:07;0.93;;;0.90;;
55465;SDS011;41329;41.594;23.810;2024-03-25T07:43:33;0.77;;;0.50;;
55465;SDS011;41329;41.594;23.810;2024-03-25T07:45:59;0.67;;;0.67;;
55465;SDS011;41329;41.594;23.810;2024-03-25T07:48:24;4.83;;;0.93;;
55465;SDS011;41329;41.594;23.810;2024-03-25T07:50:50;2.93;;;0.90;;
55465;SDS011;41329;41.594;23.810;2024-03-25T07:53:15;1.10;;;0.80;;
55465;SDS011;41329;41.594;23.810;2024-03-25T07:55:40;1.30;;;1.20;;
55465;SDS011;41329;41.594;23.810;2024-03-25T07:58:06;2.77;;;1.20;;
55465;SDS011;41329;41.594;23.810;2024-03-25T08:00:31;1.37;;;0.70;;
55465;SDS011;41329;41.594;23.810;2024-03-25T08:02:57;0.77;;;0.43;;
55465;SDS011;41329;41.594;23.810;2024-03-25T08:05:22;1.53;;;0.40;;
55465;SDS011;41329;41.594;23.810;2024-03-25T08:07:47;0.80;;;0.60;;
55465;SDS011;41329;41.594;23.810;2024-03-25T08:10:13;0.70;;;0.50;;
55465;SDS011;41329;41.594;23.810;2024-03-25T08:12:38;0.70;;;0.50;;
55465;SDS011;41329;41.594;23.810;2024-03-25T08:15:04;2.70;;;0.47;;
55465;SDS011;41329;41.594;23.810;2024-03-25T08:17:30;1.30;;;0.70;;
55465;SDS011;41329;41.594;23.810;2024-03-25T08:19:55;1.07;;;0.50;;
55465;SDS011;41329;41.594;23.810;2024-03-25T08:22:20;0.90;;;0.50;;
55465;SDS011;41329;41.594;23.810;2024-03-25T08:24:46;0.50;;;0.43;;
55465;SDS011;41329;41.594;23.810;2024-03-25T08:27:12;0.67;;;0.63;;
55465;SDS011;41329;41.594;23.810;2024-03-25T08:29:37;0.50;;;0.50;;
55465;SDS011;41329;41.594;23.810;2024-03-25T08:32:03;0.40;;;0.40;;
55465;SDS011;41329;41.594;23.810;2024-03-25T08:34:28;1.17;;;0.70;;
55465;SDS011;41329;41.594;23.810;2024-03-25T08:36:53;0.60;;;0.50;;
55465;SDS011;41329;41.594;23.810;2024-03-25T08:39:19;1.27;;;0.73;;
55465;SDS011;41329;41.594;23.810;2024-03-25T08:41:46;0.80;;;0.50;;
55465;SDS011;41329;41.594;23.810;2024-03-25T08:44:11;1.83;;;1.40;;
55465;SDS011;41329;41.594;23.810;2024-03-25T08:46:38;0.80;;;0.80;;
55465;SDS011;41329;41.594;23.810;2024-03-25T08:49:03;2.27;;;1.30;;
55465;SDS011;41329;41.594;23.810;2024-03-25T08:51:28;2.47;;;1.20;;
55465;SDS011;41329;41.594;23.810;2024-03-25T08:53:54;0.80;;;0.80;;
55465;SDS011;41329;41.594;23.810;2024-03-25T08:56:19;3.80;;;0.70;;
55465;SDS011;41329;41.594;23.810;2024-03-25T08:58:45;1.33;;;0.70;;
55465;SDS011;41329;41.594;23.810;2024-03-25T09:01:11;0.70;;;0.70;;
55465;SDS011;41329;41.594;23.810;2024-03-25T09:03:39;0.97;;;0.83;;
55465;SDS011;41329;41.594;23.810;2024-03-25T09:06:05;1.33;;;0.80;;
55465;SDS011;41329;41.594;23.810;2024-03-25T09:08:32;1.80;;;1.00;;
55465;SDS011;41329;41.594;23.810;2024-03-25T09:11:17;0.80;;;0.80;;
55465;SDS011;41329;41.594;23.810;2024-03-25T09:13:43;1.07;;;1.00;;
55465;SDS011;41329;41.594;23.810;2024-03-25T09:16:08;1.10;;;1.00;;
55465;SDS011;41329;41.594;23.810;2024-03-25T09:18:33;8.83;;;8.17;;
55465;SDS011;41329;41.594;23.810;2024-03-25T09:20:59;2.30;;;2.10;;
55465;SDS011;41329;41.594;23.810;2024-03-25T09:23:24;1.43;;;1.33;;
55465;SDS011;41329;41.594;23.810;2024-03-25T09:25:53;1.20;;;1.10;;
55465;SDS011;41329;41.594;23.810;2024-03-25T09:28:19;1.63;;;1.15;;
55465;SDS011;41329;41.594;23.810;2024-03-25T09:30:44;1.13;;;1.02;;
55465;SDS011;41329;41.594;23.810;2024-03-25T09:33:09;1.60;;;1.50;;
55465;SDS011;41329;41.594;23.810;2024-03-25T09:35:35;1.33;;;0.80;;
55465;SDS011;41329;41.594;23.810;2024-03-25T09:38:02;0.60;;;0.50;;
55465;SDS011;41329;41.594;23.810;2024-03-25T09:40:27;2.15;;;0.80;;
55465;SDS011;41329;41.594;23.810;2024-03-25T09:42:57;2.17;;;1.13;;
55465;SDS011;41329;41.594;23.810;2024-03-25T09:45:26;3.35;;;3.05;;
55465;SDS011;41329;41.594;23.810;2024-03-25T09:47:54;3.08;;;2.47;;
55465;SDS011;41329;41.594;23.810;2024-03-25T09:50:21;0.88;;;0.75;;
55465;SDS011;41329;41.594;23.810;2024-03-25T09:52:47;1.20;;;1.10;;
55465;SDS011;41329;41.594;23.810;2024-03-25T09:55:16;0.80;;;0.65;;
55465;SDS011;41329;41.594;23.810;2024-03-25T09:57:42;1.08;;;0.98;;
55465;SDS011;41329;41.594;23.810;2024-03-25T10:00:08;1.00;;;1.00;;
55465;SDS011;41329;41.594;23.810;2024-03-25T10:02:36;1.75;;;0.90;;
55465;SDS011;41329;41.594;23.810;2024-03-25T10:05:05;1.02;;;1.02;;
55465;SDS011;41329;41.594;23.810;2024-03-25T10:07:32;0.95;;;0.88;;
55465;SDS011;41329;41.594;23.810;2024-03-25T10:09:58;0.80;;;0.75;;
55465;SDS011;41329;41.594;23.810;2024-03-25T10:12:23;0.80;;;0.80;;
55465;SDS011;41329;41.594;23.810;2024-03-25T10:14:49;0.70;;;0.70;;
55465;SDS011;41329;41.594;23.810;2024-03-25T10:17:15;1.40;;;0.90;;
55465;SDS011;41329;41.594;23.810;2024-03-25T10:19:40;1.08;;;0.98;;
55465;SDS011;41329;41.594;23.810;2024-03-25T10:22:07;0.40;;;0.40;;
55465;SDS011;41329;41.594;23.810;2024-03-25T10:24:39;0.50;;;0.50;;
55465;SDS011;41329;41.594;23.810;2024-03-25T10:27:05;0.43;;;0.43;;
55465;SDS011;41329;41.594;23.810;2024-03-25T10:29:34;1.08;;;0.50;;
55465;SDS011;41329;41.594;23.810;2024-03-25T10:32:00;0.60;;;0.60;;
55465;SDS011;41329;41.594;23.810;2024-03-25T10:34:26;0.73;;;0.73;;
55465;SDS011;41329;41.594;23.810;2024-03-25T10:36:52;2.30;;;2.08;;
55465;SDS011;41329;41.594;23.810;2024-03-25T10:39:24;2.60;;;2.38;;
55465;SDS011;41329;41.594;23.810;2024-03-25T10:41:53;1.45;;;1.17;;
55465;SDS011;41329;41.594;23.810;2024-03-25T10:44:21;1.15;;;0.95;;
55465;SDS011;41329;41.594;23.810;2024-03-25T10:46:47;0.70;;;0.70;;
55465;SDS011;41329;41.594;23.810;2024-03-25T10:49:18;0.60;;;0.60;;
55465;SDS011;41329;41.594;23.810;2024-03-25T10:51:52;0.80;;;0.80;;
55465;SDS011;41329;41.594;23.810;2024-03-25T10:54:19;1.00;;;0.90;;
55465;SDS011;41329;41.594;23.810;2024-03-25T10:56:46;0.85;;;0.75;;
55465;SDS011;41329;41.594;23.810;2024-03-25T10:59:16;0.98;;;0.95;;
55465;SDS011;41329;41.594;23.810;2024-03-25T11:01:45;1.85;;;0.98;;
55465;SDS011;41329;41.594;23.810;2024-03-25T11:04:11;0.88;;;0.68;;
55465;SDS011;41329;41.594;23.810;2024-03-25T11:06:37;0.80;;;0.80;;
55465;SDS011;41329;41.594;23.810;2024-03-25T11:09:02;0.80;;;0.75;;
55465;SDS011;41329;41.594;23.810;2024-03-25T11:11:31;0.70;;;0.70;;
55465;SDS011;41329;41.594;23.810;2024-03-25T11:13:58;1.40;;;1.00;;
55465;SDS011;41329;41.594;23.810;2024-03-25T11:16:32;0.80;;;0.80;;
55465;SDS011;41329;41.594;23.810;2024-03-25T11:19:04;0.82;;;0.80;;
55465;SDS011;41329;41.594;23.810;2024-03-25T11:21:32;1.10;;;1.00;;
55465;SDS011;41329;41.594;23.810;2024-03-25T11:24:05;2.25;;;0.98;;
55465;SDS011;41329;41.594;23.810;2024-03-25T11:26:31;1.65;;;0.85;;
55465;SDS011;41329;41.594;23.810;2024-03-25T11:29:00;0.70;;;0.68;;
55465;SDS011;41329;41.594;23.810;2024-03-25T11:31:26;1.02;;;0.88;;
55465;SDS011;41329;41.594;23.810;2024-03-25T11:33:52;1.25;;;1.15;;
55465;SDS011;41329;41.594;23.810;2024-03-25T11:36:18;0.80;;;0.80;;
55465;SDS011;41329;41.594;23.810;2024-03-25T11:38:45;1.70;;;1.60;;
55465;SDS011;41329;41.594;23.810;2024-03-25T11:41:11;1.42;;;1.00;;
55465;SDS011;41329;41.594;23.810;2024-03-25T11:43:37;1.98;;;1.88;;
55465;SDS011;41329;41.594;23.810;2024-03-25T11:46:03;3.33;;;1.90;;
55465;SDS011;41329;41.594;23.810;2024-03-25T11:48:29;3.03;;;1.50;;
55465;SDS011;41329;41.594;23.810;2024-03-25T11:50:55;0.90;;;0.90;;
55465;SDS011;41329;41.594;23.810;2024-03-25T11:53:20;1.55;;;1.08;;
55465;SDS011;41329;41.594;23.810;2024-03-25T11:55:46;1.85;;;1.75;;
55465;SDS011;41329;41.594;23.810;2024-03-25T11:58:13;5.70;;;5.30;;
55465;SDS011;41329;41.594;23.810;2024-03-25T12:00:45;0.65;;;0.65;;
55465;SDS011;41329;41.594;23.810;2024-03-25T12:03:14;1.20;;;1.08;;
55465;SDS011;41329;41.594;23.810;2024-03-25T12:05:41;0.80;;;0.80;;
55465;SDS011;41329;41.594;23.810;2024-03-25T12:08:09;1.23;;;1.10;;
55465;SDS011;41329;41.594;23.810;2024-03-25T12:10:38;1.13;;;1.02;;
55465;SDS011;41329;41.594;23.810;2024-03-25T12:13:23;0.82;;;0.82;;
55465;SDS011;41329;41.594;23.810;2024-03-25T12:15:53;0.90;;;0.77;;
55465;SDS011;41329;41.594;23.810;2024-03-25T12:18:20;0.77;;;0.77;;
55465;SDS011;41329;41.594;23.810;2024-03-25T12:20:46;3.72;;;1.92;;
55465;SDS011;41329;41.594;23.810;2024-03-25T12:23:11;1.77;;;1.27;;
55465;SDS011;41329;41.594;23.810;2024-03-25T12:25:37;1.95;;;0.80;;
55465;SDS011;41329;41.594;23.810;2024-03-25T12:28:07;4.95;;;4.50;;
55465;SDS011;41329;41.594;23.810;2024-03-25T12:30:40;2.42;;;1.25;;
55465;SDS011;41329;41.594;23.810;2024-03-25T12:33:14;1.93;;;1.37;;
55465;SDS011;41329;41.594;23.810;2024-03-25T12:35:39;2.03;;;1.87;;
55465;SDS011;41329;41.594;23.810;2024-03-25T12:38:04;3.07;;;0.80;;
55465;SDS011;41329;41.594;23.810;2024-03-25T12:40:31;4.70;;;1.83;;
55465;SDS011;41329;41.594;23.810;2024-03-25T12:42:56;1.05;;;0.95;;
55465;SDS011;41329;41.594;23.810;2024-03-25T12:45:22;1.30;;;1.23;;
55465;SDS011;41329;41.594;23.810;2024-03-25T12:47:48;1.42;;;1.10;;
55465;SDS011;41329;41.594;23.810;2024-03-25T12:50:13;1.60;;;1.23;;
55465;SDS011;41329;41.594;23.810;2024-03-25T12:52:39;3.58;;;1.42;;
55465;SDS011;41329;41.594;23.810;2024-03-25T12:55:04;1.50;;;1.40;;
55465;SDS011;41329;41.594;23.810;2024-03-25T12:57:30;1.13;;;1.13;;
55465;SDS011;41329;41.594;23.810;2024-03-25T12:59:55;1.70;;;1.48;;
55465;SDS011;41329;41.594;23.810;2024-03-25T13:02:20;1.52;;;1.02;;
55465;SDS011;41329;41.594;23.810;2024-03-25T13:04:46;1.20;;;1.20;;
55465;SDS011;41329;41.594;23.810;2024-03-25T13:07:11;1.30;;;1.20;;
55465;SDS011;41329;41.594;23.810;2024-03-25T13:09:37;1.42;;;1.33;;
55465;SDS011;41329;41.594;23.810;2024-03-25T13:12:02;1.52;;;1.00;;
55465;SDS011;41329;41.594;23.810;2024-03-25T13:14:29;3.95;;;1.85;;
55465;SDS011;41329;41.594;23.810;2024-03-25T13:16:54;2.33;;;2.08;;
55465;SDS011;41329;41.594;23.810;2024-03-25T13:19:20;2.15;;;1.80;;
55465;SDS011;41329;41.594;23.810;2024-03-25T13:21:45;1.50;;;1.40;;
55465;SDS011;41329;41.594;23.810;2024-03-25T13:24:11;2.42;;;1.90;;
55465;SDS011;41329;41.594;23.810;2024-03-25T13:26:36;1.05;;;1.00;;
55465;SDS011;41329;41.594;23.810;2024-03-25T13:29:02;2.05;;;1.90;;
55465;SDS011;41329;41.594;23.810;2024-03-25T13:31:27;1.50;;;1.40;;
55465;SDS011;41329;41.594;23.810;2024-03-25T13:33:53;1.48;;;1.35;;
55465;SDS011;41329;41.594;23.810;2024-03-25T13:36:18;2.78;;;2.42;;
55465;SDS011;41329;41.594;23.810;2024-03-25T13:38:44;3.90;;;3.60;;
55465;SDS011;41329;41.594;23.810;2024-03-25T13:41:09;1.58;;;1.23;;
55465;SDS011;41329;41.594;23.810;2024-03-25T13:43:35;1.85;;;1.48;;
55465;SDS011;41329;41.594;23.810;2024-03-25T13:46:00;1.17;;;1.10;;
55465;SDS011;41329;41.594;23.810;2024-03-25T13:48:26;1.38;;;1.27;;
55465;SDS011;41329;41.594;23.810;2024-03-25T13:50:54;1.75;;;1.50;;
55465;SDS011;41329;41.594;23.810;2024-03-25T13:53:20;2.45;;;2.25;;
55465;SDS011;41329;41.594;23.810;2024-03-25T13:55:45;1.40;;;1.30;;
55465;SDS011;41329;41.594;23.810;2024-03-25T13:58:11;1.10;;;1.00;;
55465;SDS011;41329;41.594;23.810;2024-03-25T14:00:36;2.05;;;1.85;;
55465;SDS011;41329;41.594;23.810;2024-03-25T14:03:03;1.88;;;1.40;;
55465;SDS011;41329;41.594;23.810;2024-03-25T14:05:28;2.22;;;2.03;;
55465;SDS011;41329;41.594;23.810;2024-03-25T14:07:54;3.15;;;2.95;;
55465;SDS011;41329;41.594;23.810;2024-03-25T14:10:19;2.15;;;2.05;;
55465;SDS011;41329;41.594;23.810;2024-03-25T14:12:44;2.70;;;1.88;;
55465;SDS011;41329;41.594;23.810;2024-03-25T14:15:10;1.85;;;1.75;;
55465;SDS011;41329;41.594;23.810;2024-03-25T14:17:36;1.98;;;1.83;;
55465;SDS011;41329;41.594;23.810;2024-03-25T14:20:01;4.85;;;4.55;;
55465;SDS011;41329;41.594;23.810;2024-03-25T14:22:30;1.20;;;1.20;;
55465;SDS011;41329;41.594;23.810;2024-03-25T14:24:56;1.90;;;1.80;;
55465;SDS011;41329;41.594;23.810;2024-03-25T14:27:25;2.85;;;2.72;;